sensor_id;sensor_type;location;lat;lon;timestamp;pressure;altitude;pressure_sealevel;temperature;humidity
78094;BME280;67327;37.152;-76.406;2023-04-03T00:02:04;101819.81;;;44.77;8.11
78094;BME280;67327;37.152;-76.406;2023-04-03T00:04:29;101823.29;;;44.52;8.12
78094;BME280;67327;37.152;-76.406;2023-04-03T00:06:54;101827.45;;;44.74;8.12
78094;BME280;67327;37.152;-76.406;2023-04-03T00:09:20;101828.68;;;44.48;8.11
78094;BME280;67327;37.152;-76.406;2023-04-03T00:11:45;101832.17;;;44.46;8.11
78094;BME280;67327;37.152;-76.406;2023-04-03T00:14:10;101837.99;;;44.20;8.13
78094;BME280;67327;37.152;-76.406;2023-04-03T00:16:35;101844.29;;;44.67;8.13
78094;BME280;67327;37.152;-76.406;2023-04-03T00:19:00;101849.95;;;44.64;8.14
78094;BME280;67327;37.152;-76.406;2023-04-03T00:21:25;101856.11;;;44.62;8.15
78094;BME280;67327;37.152;-76.406;2023-04-03T00:23:50;101860.50;;;44.60;8.15
78094;BME280;67327;37.152;-76.406;2023-04-03T00:26:25;101863.21;;;44.33;8.14
78094;BME280;67327;37.152;-76.406;2023-04-03T00:28:40;101862.51;;;44.54;8.16
78094;BME280;67327;37.152;-76.406;2023-04-03T00:31:06;101862.06;;;44.50;8.15
78094;BME280;67327;37.152;-76.406;2023-04-03T00:33:30;101866.28;;;44.22;8.17
78094;BME280;67327;37.152;-76.406;2023-04-03T00:35:58;101874.82;;;44.17;8.15
78094;BME280;67327;37.152;-76.406;2023-04-03T00:38:21;101879.19;;;44.39;8.15
78094;BME280;67327;37.152;-76.406;2023-04-03T00:40:49;101882.60;;;44.34;8.15
78094;BME280;67327;37.152;-76.406;2023-04-03T00:43:15;101885.36;;;44.31;8.14
78094;BME280;67327;37.152;-76.406;2023-04-03T00:45:38;101890.45;;;44.27;8.15
78094;BME280;67327;37.152;-76.406;2023-04-03T00:48:03;101902.61;;;44.24;8.16
78094;BME280;67327;37.152;-76.406;2023-04-03T00:50:27;101909.49;;;44.22;8.15
78094;BME280;67327;37.152;-76.406;2023-04-03T00:52:52;101918.59;;;44.18;8.16
78094;BME280;67327;37.152;-76.406;2023-04-03T00:55:17;101923.40;;;44.14;8.15
78094;BME280;67327;37.152;-76.406;2023-04-03T00:57:42;101924.22;;;44.11;8.16
78094;BME280;67327;37.152;-76.406;2023-04-03T01:00:10;101924.65;;;44.09;8.16
78094;BME280;67327;37.152;-76.406;2023-04-03T01:02:33;101925.18;;;43.82;8.16
78094;BME280;67327;37.152;-76.406;2023-04-03T01:04:57;101918.58;;;44.02;8.16
78094;BME280;67327;37.152;-76.406;2023-04-03T01:07:26;101921.52;;;43.98;8.16
78094;BME280;67327;37.152;-76.406;2023-04-03T01:09:49;101925.34;;;43.94;8.18
78094;BME280;67327;37.152;-76.406;2023-04-03T01:12:15;101935.57;;;43.90;8.18
78094;BME280;67327;37.152;-76.406;2023-04-03T01:14:38;101946.24;;;43.86;8.19
78094;BME280;67327;37.152;-76.406;2023-04-03T01:17:03;101948.34;;;43.84;8.18
78094;BME280;67327;37.152;-76.406;2023-04-03T01:19:28;101952.19;;;43.81;8.19
78094;BME280;67327;37.152;-76.406;2023-04-03T01:22:06;101949.74;;;43.76;8.20
78094;BME280;67327;37.152;-76.406;2023-04-03T01:24:27;101950.16;;;43.74;8.20
78094;BME280;67327;37.152;-76.406;2023-04-03T01:26:43;101952.66;;;43.74;8.18
78094;BME280;67327;37.152;-76.406;2023-04-03T01:29:08;101959.03;;;43.70;8.20
78094;BME280;67327;37.152;-76.406;2023-04-03T01:31:45;101965.70;;;43.64;8.22
78094;BME280;67327;37.152;-76.406;2023-04-03T01:33:59;101963.36;;;43.84;8.22
78094;BME280;67327;37.152;-76.406;2023-04-03T01:36:25;101966.54;;;43.58;8.22
78094;BME280;67327;37.152;-76.406;2023-04-03T01:38:49;101968.43;;;43.77;8.23
78094;BME280;67327;37.152;-76.406;2023-04-03T01:41:14;101971.65;;;43.73;8.24
78094;BME280;67327;37.152;-76.406;2023-04-03T01:43:39;101972.45;;;43.92;8.25
78094;BME280;67327;37.152;-76.406;2023-04-03T01:46:04;101978.67;;;43.64;8.28
78094;BME280;67327;37.152;-76.406;2023-04-03T01:48:29;101979.66;;;43.59;8.28
78094;BME280;67327;37.152;-76.406;2023-04-03T01:50:54;101980.41;;;43.78;8.29
78094;BME280;67327;37.152;-76.406;2023-04-03T01:53:20;101979.63;;;43.50;8.31
78094;BME280;67327;37.152;-76.406;2023-04-03T01:55:44;101979.08;;;43.21;8.31
78094;BME280;67327;37.152;-76.406;2023-04-03T01:58:10;101982.56;;;43.41;8.32
78094;BME280;67327;37.152;-76.406;2023-04-03T02:00:36;101984.29;;;43.14;8.34
78094;BME280;67327;37.152;-76.406;2023-04-03T02:03:00;101985.89;;;43.11;8.33
78094;BME280;67327;37.152;-76.406;2023-04-03T02:05:27;101985.79;;;43.07;8.35
78094;BME280;67327;37.152;-76.406;2023-04-03T02:07:50;101984.10;;;43.51;8.36
78094;BME280;67327;37.152;-76.406;2023-04-03T02:10:16;101986.71;;;42.99;8.37
78094;BME280;67327;37.152;-76.406;2023-04-03T02:12:40;101992.01;;;43.18;8.38
78094;BME280;67327;37.152;-76.406;2023-04-03T02:15:06;101992.15;;;43.39;8.37
78094;BME280;67327;37.152;-76.406;2023-04-03T02:17:31;101991.99;;;43.35;8.42
78094;BME280;67327;37.152;-76.406;2023-04-03T02:19:55;101995.28;;;43.33;8.42
78094;BME280;67327;37.152;-76.406;2023-04-03T02:22:20;101999.71;;;43.08;8.44
78094;BME280;67327;37.152;-76.406;2023-04-03T02:24:46;102003.82;;;43.28;8.43
78094;BME280;67327;37.152;-76.406;2023-04-03T02:27:11;102003.95;;;43.27;8.45
78094;BME280;67327;37.152;-76.406;2023-04-03T02:29:37;102009.21;;;43.24;8.45
78094;BME280;67327;37.152;-76.406;2023-04-03T02:32:01;102011.86;;;42.98;8.45
78094;BME280;67327;37.152;-76.406;2023-04-03T02:34:26;102009.04;;;42.96;8.47
78094;BME280;67327;37.152;-76.406;2023-04-03T02:36:51;102009.00;;;43.18;8.48
78094;BME280;67327;37.152;-76.406;2023-04-03T02:39:16;102013.14;;;43.16;8.50
78094;BME280;67327;37.152;-76.406;2023-04-03T02:41:42;102012.03;;;43.14;8.51
78094;BME280;67327;37.152;-76.406;2023-04-03T02:44:09;102009.32;;;43.12;8.53
78094;BME280;67327;37.152;-76.406;2023-04-03T02:46:33;102009.87;;;43.11;8.53
78094;BME280;67327;37.152;-76.406;2023-04-03T02:48:58;102008.27;;;43.09;8.54
78094;BME280;67327;37.152;-76.406;2023-04-03T02:51:22;102004.89;;;43.06;8.57
78094;BME280;67327;37.152;-76.406;2023-04-03T02:53:48;102000.09;;;43.05;8.56
78094;BME280;67327;37.152;-76.406;2023-04-03T02:56:12;101995.81;;;43.04;8.57
78094;BME280;67327;37.152;-76.406;2023-04-03T02:58:37;101991.78;;;43.01;8.58
78094;BME280;67327;37.152;-76.406;2023-04-03T03:01:03;101991.52;;;42.99;8.59
78094;BME280;67327;37.152;-76.406;2023-04-03T03:03:27;101992.58;;;42.96;8.60
78094;BME280;67327;37.152;-76.406;2023-04-03T03:06:01;101993.13;;;42.95;8.61
78094;BME280;67327;37.152;-76.406;2023-04-03T03:08:18;101985.06;;;42.93;8.61
78094;BME280;67327;37.152;-76.406;2023-04-03T03:10:43;101983.60;;;42.66;8.63
78094;BME280;67327;37.152;-76.406;2023-04-03T03:13:08;101989.62;;;42.87;8.66
78094;BME280;67327;37.152;-76.406;2023-04-03T03:15:33;101991.59;;;42.86;8.67
78094;BME280;67327;37.152;-76.406;2023-04-03T03:17:58;101989.20;;;42.83;8.68
78094;BME280;67327;37.152;-76.406;2023-04-03T03:20:24;101985.19;;;42.81;8.69
78094;BME280;67327;37.152;-76.406;2023-04-03T03:22:48;101983.73;;;42.79;8.68
78094;BME280;67327;37.152;-76.406;2023-04-03T03:25:14;101985.49;;;42.77;8.67
78094;BME280;67327;37.152;-76.406;2023-04-03T03:27:39;101983.34;;;42.75;8.69
78094;BME280;67327;37.152;-76.406;2023-04-03T03:30:05;101979.72;;;42.97;8.71
78094;BME280;67327;37.152;-76.406;2023-04-03T03:32:29;101974.71;;;42.71;8.73
78094;BME280;67327;37.152;-76.406;2023-04-03T03:34:54;101973.25;;;42.95;8.73
78094;BME280;67327;37.152;-76.406;2023-04-03T03:37:20;101969.17;;;42.93;8.74
78094;BME280;67327;37.152;-76.406;2023-04-03T03:39:49;101971.42;;;42.67;8.74
78094;BME280;67327;37.152;-76.406;2023-04-03T03:42:10;101973.68;;;42.63;8.75
78094;BME280;67327;37.152;-76.406;2023-04-03T03:44:34;101977.07;;;42.61;8.76
78094;BME280;67327;37.152;-76.406;2023-04-03T03:47:05;101978.98;;;42.58;8.74
78094;BME280;67327;37.152;-76.406;2023-04-03T03:49:25;101982.52;;;42.57;8.78
78094;BME280;67327;37.152;-76.406;2023-04-03T03:51:50;101983.93;;;42.56;8.78
78094;BME280;67327;37.152;-76.406;2023-04-03T03:54:16;101990.89;;;42.53;8.81
78094;BME280;67327;37.152;-76.406;2023-04-03T03:56:40;101992.59;;;42.76;8.81
78094;BME280;67327;37.152;-76.406;2023-04-03T03:59:05;101993.60;;;42.49;8.81
78094;BME280;67327;37.152;-76.406;2023-04-03T04:01:32;101995.05;;;42.46;8.82
78094;BME280;67327;37.152;-76.406;2023-04-03T04:03:55;101997.24;;;42.43;8.84
78094;BME280;67327;37.152;-76.406;2023-04-03T04:06:21;102000.42;;;42.67;8.82
78094;BME280;67327;37.152;-76.406;2023-04-03T04:08:46;102002.13;;;42.41;8.84
78094;BME280;67327;37.152;-76.406;2023-04-03T04:11:11;102004.05;;;42.62;8.84
78094;BME280;67327;37.152;-76.406;2023-04-03T04:13:36;102005.20;;;42.59;8.86
78094;BME280;67327;37.152;-76.406;2023-04-03T04:16:01;102001.34;;;42.33;8.87
78094;BME280;67327;37.152;-76.406;2023-04-03T04:18:26;102006.33;;;42.30;8.88
78094;BME280;67327;37.152;-76.406;2023-04-03T04:20:52;102009.73;;;42.51;8.89
78094;BME280;67327;37.152;-76.406;2023-04-03T04:23:16;102010.99;;;42.50;8.89
78094;BME280;67327;37.152;-76.406;2023-04-03T04:25:45;102010.73;;;42.47;8.90
78094;BME280;67327;37.152;-76.406;2023-04-03T04:28:07;102010.42;;;42.21;8.90
78094;BME280;67327;37.152;-76.406;2023-04-03T04:30:32;102013.15;;;42.42;8.92
78094;BME280;67327;37.152;-76.406;2023-04-03T04:32:57;102012.12;;;42.64;8.93
78094;BME280;67327;37.152;-76.406;2023-04-03T04:35:22;102010.89;;;42.38;8.90
78094;BME280;67327;37.152;-76.406;2023-04-03T04:37:48;102015.83;;;42.36;8.93
78094;BME280;67327;37.152;-76.406;2023-04-03T04:40:15;102018.43;;;42.35;8.95
78094;BME280;67327;37.152;-76.406;2023-04-03T04:42:39;102015.85;;;42.33;8.94
78094;BME280;67327;37.152;-76.406;2023-04-03T04:45:03;102014.52;;;42.07;8.94
78094;BME280;67327;37.152;-76.406;2023-04-03T04:47:29;102019.66;;;42.28;8.96
78094;BME280;67327;37.152;-76.406;2023-04-03T04:49:54;102025.47;;;42.25;8.96
78094;BME280;67327;37.152;-76.406;2023-04-03T04:52:18;102028.53;;;41.99;8.97
78094;BME280;67327;37.152;-76.406;2023-04-03T04:54:43;102029.31;;;41.97;8.98
78094;BME280;67327;37.152;-76.406;2023-04-03T04:57:08;102027.00;;;42.43;8.98
78094;BME280;67327;37.152;-76.406;2023-04-03T04:59:33;102028.12;;;41.69;8.99
78094;BME280;67327;37.152;-76.406;2023-04-03T05:01:59;102029.61;;;41.90;9.00
78094;BME280;67327;37.152;-76.406;2023-04-03T05:04:23;102029.85;;;42.35;9.00
78094;BME280;67327;37.152;-76.406;2023-04-03T05:06:48;102029.91;;;42.09;9.01
78094;BME280;67327;37.152;-76.406;2023-04-03T05:09:15;102030.53;;;42.06;9.01
78094;BME280;67327;37.152;-76.406;2023-04-03T05:11:39;102027.39;;;42.04;9.02
78094;BME280;67327;37.152;-76.406;2023-04-03T05:14:07;102027.79;;;42.02;9.01
78094;BME280;67327;37.152;-76.406;2023-04-03T05:16:31;102029.75;;;42.00;9.02
78094;BME280;67327;37.152;-76.406;2023-04-03T05:18:55;102028.35;;;42.00;9.03
78094;BME280;67327;37.152;-76.406;2023-04-03T05:21:20;102028.73;;;42.23;9.03
78094;BME280;67327;37.152;-76.406;2023-04-03T05:23:44;102028.98;;;41.96;9.02
78094;BME280;67327;37.152;-76.406;2023-04-03T05:26:11;102022.97;;;42.17;9.04
78094;BME280;67327;37.152;-76.406;2023-04-03T05:28:35;102023.48;;;41.90;9.03
78094;BME280;67327;37.152;-76.406;2023-04-03T05:30:59;102022.50;;;42.12;9.03
78094;BME280;67327;37.152;-76.406;2023-04-03T05:33:32;102017.92;;;41.90;9.00
78094;BME280;67327;37.152;-76.406;2023-04-03T05:35:51;102011.31;;;42.14;9.02
78094;BME280;67327;37.152;-76.406;2023-04-03T05:38:15;102000.56;;;42.14;9.03
78094;BME280;67327;37.152;-76.406;2023-04-03T05:40:40;101996.54;;;42.12;9.03
78094;BME280;67327;37.152;-76.406;2023-04-03T05:43:05;101992.36;;;42.11;9.02
78094;BME280;67327;37.152;-76.406;2023-04-03T05:45:30;101987.95;;;42.08;9.02
78094;BME280;67327;37.152;-76.406;2023-04-03T05:47:56;101982.66;;;41.80;9.00
78094;BME280;67327;37.152;-76.406;2023-04-03T05:50:21;101981.92;;;41.79;9.03
78094;BME280;67327;37.152;-76.406;2023-04-03T05:52:48;101979.76;;;42.00;9.03
78094;BME280;67327;37.152;-76.406;2023-04-03T05:55:11;101980.93;;;41.96;9.06
78094;BME280;67327;37.152;-76.406;2023-04-03T05:57:36;101980.32;;;41.93;9.06
78094;BME280;67327;37.152;-76.406;2023-04-03T06:00:03;101981.85;;;41.65;9.07
78094;BME280;67327;37.152;-76.406;2023-04-03T06:02:27;101986.70;;;41.86;9.07
78094;BME280;67327;37.152;-76.406;2023-04-03T06:04:51;101981.37;;;41.83;9.07
78094;BME280;67327;37.152;-76.406;2023-04-03T06:07:17;101980.57;;;41.79;9.07
78094;BME280;67327;37.152;-76.406;2023-04-03T06:09:43;101980.20;;;41.73;9.07
78094;BME280;67327;37.152;-76.406;2023-04-03T06:12:06;101978.77;;;41.64;9.09
78094;BME280;67327;37.152;-76.406;2023-04-03T06:14:32;101978.84;;;41.63;9.09
78094;BME280;67327;37.152;-76.406;2023-04-03T06:16:57;101977.49;;;41.60;9.06
78094;BME280;67327;37.152;-76.406;2023-04-03T06:19:22;101980.95;;;41.59;9.06
78094;BME280;67327;37.152;-76.406;2023-04-03T06:21:47;101981.08;;;41.57;9.05
78094;BME280;67327;37.152;-76.406;2023-04-03T06:24:15;101978.63;;;41.55;9.03
78094;BME280;67327;37.152;-76.406;2023-04-03T06:26:37;101974.67;;;41.54;9.03
78094;BME280;67327;37.152;-76.406;2023-04-03T06:29:03;101969.40;;;41.50;9.01
78094;BME280;67327;37.152;-76.406;2023-04-03T06:31:27;101966.66;;;41.47;9.02
78094;BME280;67327;37.152;-76.406;2023-04-03T06:33:58;101960.61;;;41.44;9.02
78094;BME280;67327;37.152;-76.406;2023-04-03T06:36:18;101959.62;;;41.41;9.02
78094;BME280;67327;37.152;-76.406;2023-04-03T06:38:43;101959.40;;;41.39;9.02
78094;BME280;67327;37.152;-76.406;2023-04-03T06:41:08;101957.58;;;41.35;9.04
78094;BME280;67327;37.152;-76.406;2023-04-03T06:43:33;101957.49;;;41.35;9.02
78094;BME280;67327;37.152;-76.406;2023-04-03T06:45:58;101953.99;;;41.32;9.04
78094;BME280;67327;37.152;-76.406;2023-04-03T06:48:24;101954.96;;;41.31;9.04
78094;BME280;67327;37.152;-76.406;2023-04-03T06:50:48;101961.80;;;41.30;9.04
78094;BME280;67327;37.152;-76.406;2023-04-03T06:53:14;101966.49;;;41.28;9.03
78094;BME280;67327;37.152;-76.406;2023-04-03T06:55:38;101971.95;;;41.48;9.05
78094;BME280;67327;37.152;-76.406;2023-04-03T06:58:04;101974.64;;;41.20;9.07
78094;BME280;67327;37.152;-76.406;2023-04-03T07:00:30;101979.58;;;41.16;9.06
78094;BME280;67327;37.152;-76.406;2023-04-03T07:02:54;101986.63;;;41.12;9.06
78094;BME280;67327;37.152;-76.406;2023-04-03T07:05:20;101993.31;;;41.34;9.06
78094;BME280;67327;37.152;-76.406;2023-04-03T07:07:51;101994.75;;;41.32;9.05
78094;BME280;67327;37.152;-76.406;2023-04-03T07:10:10;101998.69;;;41.06;9.04
78094;BME280;67327;37.152;-76.406;2023-04-03T07:12:35;102001.23;;;41.05;9.03
78094;BME280;67327;37.152;-76.406;2023-04-03T07:15:00;102001.54;;;41.03;9.04
78094;BME280;67327;37.152;-76.406;2023-04-03T07:17:26;102003.24;;;40.99;9.05
78094;BME280;67327;37.152;-76.406;2023-04-03T07:19:50;102001.19;;;41.13;9.06
78094;BME280;67327;37.152;-76.406;2023-04-03T07:24:42;101997.85;;;40.81;9.08
78094;BME280;67327;37.152;-76.406;2023-04-03T07:27:11;101999.10;;;41.26;9.08
78094;BME280;67327;37.152;-76.406;2023-04-03T07:29:31;102003.74;;;41.22;9.09
78094;BME280;67327;37.152;-76.406;2023-04-03T07:31:56;102000.76;;;41.18;9.11
78094;BME280;67327;37.152;-76.406;2023-04-03T07:34:21;101995.39;;;41.15;9.12
78094;BME280;67327;37.152;-76.406;2023-04-03T07:36:47;101991.85;;;41.12;9.13
78094;BME280;67327;37.152;-76.406;2023-04-03T07:39:11;101989.35;;;40.86;9.12
78094;BME280;67327;37.152;-76.406;2023-04-03T07:41:37;101989.46;;;40.83;9.14
78094;BME280;67327;37.152;-76.406;2023-04-03T07:44:02;101989.73;;;41.04;9.14
78094;BME280;67327;37.152;-76.406;2023-04-03T07:46:27;101980.10;;;41.00;9.15
78094;BME280;67327;37.152;-76.406;2023-04-03T07:48:52;101969.24;;;40.70;9.16
78094;BME280;67327;37.152;-76.406;2023-04-03T07:51:16;101965.95;;;40.91;9.16
78094;BME280;67327;37.152;-76.406;2023-04-03T07:53:42;101962.22;;;40.88;9.16
78094;BME280;67327;37.152;-76.406;2023-04-03T07:56:08;101958.52;;;40.87;9.15
78094;BME280;67327;37.152;-76.406;2023-04-03T07:58:32;101949.50;;;40.85;9.15
78094;BME280;67327;37.152;-76.406;2023-04-03T08:00:58;101945.70;;;40.84;9.15
78094;BME280;67327;37.152;-76.406;2023-04-03T08:03:23;101946.63;;;40.59;9.14
78094;BME280;67327;37.152;-76.406;2023-04-03T08:05:48;101940.71;;;40.57;9.14
78094;BME280;67327;37.152;-76.406;2023-04-03T08:08:14;101931.13;;;40.80;9.13
78094;BME280;67327;37.152;-76.406;2023-04-03T08:10:37;101924.15;;;40.79;9.11
78094;BME280;67327;37.152;-76.406;2023-04-03T08:13:03;101915.01;;;40.77;9.13
78094;BME280;67327;37.152;-76.406;2023-04-03T08:15:28;101907.57;;;40.74;9.12
78094;BME280;67327;37.152;-76.406;2023-04-03T08:17:52;101901.02;;;40.75;9.12
78094;BME280;67327;37.152;-76.406;2023-04-03T08:20:18;101889.50;;;40.75;9.12
78094;BME280;67327;37.152;-76.406;2023-04-03T08:22:43;101879.20;;;40.74;9.12
78094;BME280;67327;37.152;-76.406;2023-04-03T08:25:09;101883.27;;;40.48;9.12
78094;BME280;67327;37.152;-76.406;2023-04-03T08:27:33;101889.20;;;40.68;9.14
78094;BME280;67327;37.152;-76.406;2023-04-03T08:29:58;101886.87;;;40.64;9.15
78094;BME280;67327;37.152;-76.406;2023-04-03T08:32:24;101880.20;;;40.61;9.15
78094;BME280;67327;37.152;-76.406;2023-04-03T08:34:48;101876.54;;;40.59;9.14
78094;BME280;67327;37.152;-76.406;2023-04-03T08:37:14;101873.09;;;40.34;9.14
78094;BME280;67327;37.152;-76.406;2023-04-03T08:39:39;101878.55;;;40.55;9.14
78094;BME280;67327;37.152;-76.406;2023-04-03T08:42:10;101891.44;;;40.52;9.14
78094;BME280;67327;37.152;-76.406;2023-04-03T08:44:38;101905.80;;;40.27;9.14
78094;BME280;67327;37.152;-76.406;2023-04-03T08:47:04;101914.76;;;40.51;9.12
78094;BME280;67327;37.152;-76.406;2023-04-03T08:49:24;101921.93;;;40.49;9.14
78094;BME280;67327;37.152;-76.406;2023-04-03T08:51:47;101929.11;;;40.48;9.14
78094;BME280;67327;37.152;-76.406;2023-04-03T08:54:17;101928.06;;;40.47;9.14
78094;BME280;67327;37.152;-76.406;2023-04-03T08:56:35;101929.62;;;40.48;9.12
78094;BME280;67327;37.152;-76.406;2023-04-03T08:59:01;101932.54;;;40.46;9.13
78094;BME280;67327;37.152;-76.406;2023-04-03T09:01:28;101936.45;;;40.47;9.14
78094;BME280;67327;37.152;-76.406;2023-04-03T09:03:50;101945.75;;;40.72;9.13
78094;BME280;67327;37.152;-76.406;2023-04-03T09:06:19;101957.89;;;40.46;9.14
78094;BME280;67327;37.152;-76.406;2023-04-03T09:08:45;101952.61;;;40.68;9.15
78094;BME280;67327;37.152;-76.406;2023-04-03T09:11:13;101946.36;;;40.69;9.13
78094;BME280;67327;37.152;-76.406;2023-04-03T09:13:34;101946.48;;;40.20;9.13
78094;BME280;67327;37.152;-76.406;2023-04-03T09:16:10;101962.39;;;40.41;9.13
78094;BME280;67327;37.152;-76.406;2023-04-03T09:18:23;101975.97;;;40.39;9.11
78094;BME280;67327;37.152;-76.406;2023-04-03T09:20:54;101981.45;;;40.32;9.14
78094;BME280;67327;37.152;-76.406;2023-04-03T09:23:19;101983.21;;;40.04;9.14
78094;BME280;67327;37.152;-76.406;2023-04-03T09:25:38;101993.05;;;40.24;9.15
78094;BME280;67327;37.152;-76.406;2023-04-03T09:28:04;101999.01;;;40.19;9.16
78094;BME280;67327;37.152;-76.406;2023-04-03T09:30:27;102004.75;;;40.16;9.17
78094;BME280;67327;37.152;-76.406;2023-04-03T09:32:55;102011.45;;;40.14;9.17
78094;BME280;67327;37.152;-76.406;2023-04-03T09:35:22;102019.56;;;40.14;9.17
78094;BME280;67327;37.152;-76.406;2023-04-03T09:37:43;102028.78;;;40.36;9.17
78094;BME280;67327;37.152;-76.406;2023-04-03T09:42:32;102023.31;;;40.31;9.18
78094;BME280;67327;37.152;-76.406;2023-04-03T09:44:59;102025.19;;;40.06;9.20
78094;BME280;67327;37.152;-76.406;2023-04-03T09:47:26;102026.14;;;40.04;9.20
78094;BME280;67327;37.152;-76.406;2023-04-03T09:49:47;102022.67;;;40.01;9.20
78094;BME280;67327;37.152;-76.406;2023-04-03T09:52:24;102017.62;;;40.20;9.22
78094;BME280;67327;37.152;-76.406;2023-04-03T09:54:38;102021.33;;;40.41;9.22
78094;BME280;67327;37.152;-76.406;2023-04-03T09:57:08;102020.27;;;40.39;9.22
78094;BME280;67327;37.152;-76.406;2023-04-03T09:59:29;102026.83;;;40.36;9.22
78094;BME280;67327;37.152;-76.406;2023-04-03T10:01:58;102023.93;;;40.34;9.23
78094;BME280;67327;37.152;-76.406;2023-04-03T10:04:25;102020.25;;;40.07;9.23
78094;BME280;67327;37.152;-76.406;2023-04-03T10:06:45;102016.95;;;40.04;9.24
78094;BME280;67327;37.152;-76.406;2023-04-03T10:09:18;102018.35;;;40.02;9.22
78094;BME280;67327;37.152;-76.406;2023-04-03T10:11:34;102008.85;;;40.26;9.21
78094;BME280;67327;37.152;-76.406;2023-04-03T10:14:00;102004.91;;;39.76;9.22
78094;BME280;67327;37.152;-76.406;2023-04-03T10:16:34;102006.43;;;40.20;9.25
78094;BME280;67327;37.152;-76.406;2023-04-03T10:18:54;102006.98;;;39.94;9.27
78094;BME280;67327;37.152;-76.406;2023-04-03T10:21:19;102005.19;;;39.70;9.25
78094;BME280;67327;37.152;-76.406;2023-04-03T10:23:43;102004.45;;;39.93;9.24
78094;BME280;67327;37.152;-76.406;2023-04-03T10:26:12;102012.33;;;40.15;9.24
78094;BME280;67327;37.152;-76.406;2023-04-03T10:28:45;102026.11;;;39.91;9.24
78094;BME280;67327;37.152;-76.406;2023-04-03T10:31:01;102036.21;;;39.69;9.25
78094;BME280;67327;37.152;-76.406;2023-04-03T10:33:27;102044.11;;;39.94;9.24
78094;BME280;67327;37.152;-76.406;2023-04-03T10:35:51;102058.28;;;39.68;9.25
78094;BME280;67327;37.152;-76.406;2023-04-03T10:38:17;102067.36;;;39.89;9.26
78094;BME280;67327;37.152;-76.406;2023-04-03T10:40:44;102077.17;;;39.87;9.28
78094;BME280;67327;37.152;-76.406;2023-04-03T10:43:08;102078.11;;;40.11;9.33
78094;BME280;67327;37.152;-76.406;2023-04-03T10:45:29;102076.28;;;40.09;9.44
78094;BME280;67327;37.152;-76.406;2023-04-03T10:48:00;102076.05;;;40.06;9.63
78094;BME280;67327;37.152;-76.406;2023-04-03T10:50:29;102073.85;;;39.80;9.88
78094;BME280;67327;37.152;-76.406;2023-04-03T10:52:46;102073.90;;;39.59;10.12
78094;BME280;67327;37.152;-76.406;2023-04-03T10:55:17;102075.80;;;39.84;10.32
78094;BME280;67327;37.152;-76.406;2023-04-03T10:57:31;102076.38;;;40.12;10.47
78094;BME280;67327;37.152;-76.406;2023-04-03T11:00:00;102069.22;;;39.91;10.57
78094;BME280;67327;37.152;-76.406;2023-04-03T11:02:25;102077.53;;;39.95;10.64
78094;BME280;67327;37.152;-76.406;2023-04-03T11:04:50;102084.24;;;40.00;10.67
78094;BME280;67327;37.152;-76.406;2023-04-03T11:07:15;102087.24;;;39.82;10.69
78094;BME280;67327;37.152;-76.406;2023-04-03T11:09:40;102073.47;;;40.34;10.71
78094;BME280;67327;37.152;-76.406;2023-04-03T11:12:05;102070.29;;;40.37;10.72
78094;BME280;67327;37.152;-76.406;2023-04-03T11:14:28;102072.37;;;40.20;10.70
78094;BME280;67327;37.152;-76.406;2023-04-03T11:17:08;102069.04;;;40.26;10.67
78094;BME280;67327;37.152;-76.406;2023-04-03T11:19:19;102072.14;;;40.31;10.64
78094;BME280;67327;37.152;-76.406;2023-04-03T11:21:46;102080.10;;;40.11;10.61
78094;BME280;67327;37.152;-76.406;2023-04-03T11:24:15;102077.43;;;40.16;10.58
78094;BME280;67327;37.152;-76.406;2023-04-03T11:26:37;102081.85;;;40.22;10.56
78094;BME280;67327;37.152;-76.406;2023-04-03T11:29:00;102085.96;;;40.28;10.51
78094;BME280;67327;37.152;-76.406;2023-04-03T11:31:35;102079.85;;;40.36;10.48
78094;BME280;67327;37.152;-76.406;2023-04-03T11:33:57;102075.36;;;40.70;10.43
78094;BME280;67327;37.152;-76.406;2023-04-03T11:36:19;102075.08;;;40.55;10.38
78094;BME280;67327;37.152;-76.406;2023-04-03T11:38:43;102076.82;;;40.62;10.35
78094;BME280;67327;37.152;-76.406;2023-04-03T11:41:05;102088.51;;;40.43;10.34
78094;BME280;67327;37.152;-76.406;2023-04-03T11:43:32;102092.68;;;40.71;10.31
78094;BME280;67327;37.152;-76.406;2023-04-03T11:45:57;102097.54;;;40.75;10.30
78094;BME280;67327;37.152;-76.406;2023-04-03T11:50:46;102109.54;;;40.59;10.28
78094;BME280;67327;37.152;-76.406;2023-04-03T11:58:14;102117.87;;;40.69;10.20
78094;BME280;67327;37.152;-76.406;2023-04-03T12:02:49;102131.78;;;40.96;10.18
78094;BME280;67327;37.152;-76.406;2023-04-03T12:05:25;102134.42;;;40.95;10.13
78094;BME280;67327;37.152;-76.406;2023-04-03T12:07:39;102131.90;;;40.70;10.13
78094;BME280;67327;37.152;-76.406;2023-04-03T12:10:16;102134.45;;;40.68;10.13
78094;BME280;67327;37.152;-76.406;2023-04-03T12:12:35;102141.94;;;40.90;10.11
78094;BME280;67327;37.152;-76.406;2023-04-03T12:14:55;102143.52;;;40.65;10.10
78094;BME280;67327;37.152;-76.406;2023-04-03T12:17:25;102134.36;;;40.86;10.09
78094;BME280;67327;37.152;-76.406;2023-04-03T12:19:45;102139.44;;;40.84;10.09
78094;BME280;67327;37.152;-76.406;2023-04-03T12:22:14;102144.78;;;40.56;10.08
78094;BME280;67327;37.152;-76.406;2023-04-03T12:24:37;102138.25;;;40.77;10.08
78094;BME280;67327;37.152;-76.406;2023-04-03T12:27:14;102131.90;;;40.75;10.07
78094;BME280;67327;37.152;-76.406;2023-04-03T12:29:29;102127.96;;;40.75;10.06
78094;BME280;67327;37.152;-76.406;2023-04-03T12:32:10;102129.65;;;40.73;10.04
78094;BME280;67327;37.152;-76.406;2023-04-03T12:34:26;102127.92;;;40.72;10.04
78094;BME280;67327;37.152;-76.406;2023-04-03T12:36:50;102128.07;;;40.70;10.03
78094;BME280;67327;37.152;-76.406;2023-04-03T12:39:17;102132.18;;;40.68;10.03
78094;BME280;67327;37.152;-76.406;2023-04-03T12:41:37;102125.68;;;40.66;10.00